Time;durP1;ratioP1;P1;durP2;ratioP2;P2;SDS_P1;SDS_P2;PMS_P1;PMS_P2;Temp;Humidity;BMP_temperature;BMP_pressure;BME280_temperature;BME280_humidity;BME280_pressure;Samples;Min_cycle;Max_cycle;Signal;HPM_P1;HPM_P2
2023/08/16 00:00:57;;;;;;;;;;;;;;;;;;5019186;28;20371;-75
2023/08/16 00:03:43;;;;;;;;;;;;;;;;;;5025425;28;19951;-76
2023/08/16 00:06:30;;;;;;;;;;;;;;;;;;5017693;28;19913;-76
2023/08/16 00:09:17;;;;;;;;;;;;;;;;;;5026435;28;19921;-75
2023/08/16 00:12:03;;;;;;;;;;;;;;;;;;5018242;28;19921;-75
2023/08/16 00:14:50;;;;;;;;;;;;;;;;;;5022677;28;21670;-75
2023/08/16 00:17:36;;;;;;;;;;;;;;;;;;5020215;28;19932;-75
2023/08/16 00:20:26;;;;;;;;;;;;;;;;;;5022396;28;20310;-75
2023/08/16 00:23:13;;;;;;;;;;;;;;;;;;5017318;28;19921;-75
2023/08/16 00:25:59;;;;;;;;;;;;;;;;;;5019671;28;19928;-75
2023/08/16 00:28:47;;;;;;;;;;;;;;;;;;5024412;28;19939;-75
2023/08/16 00:31:34;;;;;;;;;;;;;;;;;;5021477;28;19921;-74
2023/08/16 00:34:20;;;;;;;;;;;;;;;;;;5023837;28;19926;-74
2023/08/16 00:37:06;;;;;;;;;;;;;;;;;;5017133;28;19921;-74
2023/08/16 00:39:53;;;;;;;;;;;;;;;;;;5023806;28;19924;-74
2023/08/16 00:42:39;;;;;;;;;;;;;;;;;;5026343;28;19928;-74
2023/08/16 00:45:26;;;;;;;;;;;;;;;;;;5016419;28;19918;-76
2023/08/16 00:48:12;;;;;;;;;;;;;;;;;;5026340;28;20325;-75
2023/08/16 00:50:59;;;;;;;;;;;;;;;;;;5007760;28;19917;-75
2023/08/16 00:53:45;;;;;;;;;;;;;;;;;;5017382;28;19929;-75
2023/08/16 00:56:32;;;;;;;;;;;;;;;;;;5011325;28;19917;-74
2023/08/16 00:59:18;;;;;;;;;;;;;;;;;;5015521;28;19918;-75
2023/08/16 01:02:05;;;;;;;;;;;;;;;;;;5021827;28;19928;-75
2023/08/16 01:04:51;;;;;;;;;;;;;;;;;;5024102;28;19921;-74
2023/08/16 01:07:38;;;;;;;;;;;;;;;;;;5019882;28;19917;-76
2023/08/16 01:10:24;;;;;;;;;;;;;;;;;;5023460;28;19939;-76
2023/08/16 01:13:11;;;;;;;;;;;;;;;;;;5016115;28;19933;-76
2023/08/16 01:15:57;;;;;;;;;;;;;;;;;;5021145;28;19936;-76
2023/08/16 01:18:44;;;;;;;;;;;;;;;;;;5022097;28;19918;-75
2023/08/16 01:21:30;;;;;;;;;;;;;;;;;;5019939;28;19921;-75
2023/08/16 01:24:17;;;;;;;;;;;;;;;;;;5025062;28;19921;-75
2023/08/16 01:27:03;;;;;;;;;;;;;;;;;;5022591;28;19917;-75
2023/08/16 01:29:52;;;;;;;;;;;;;;;;;;5020460;28;19926;-75
2023/08/16 01:32:38;;;;;;;;;;;;;;;;;;5013971;28;20296;-76
2023/08/16 01:35:25;;;;;;;;;;;;;;;;;;4998512;28;19925;-74
2023/08/16 01:38:13;;;;;;;;;;;;;;;;;;5021739;28;19921;-75
2023/08/16 01:40:59;;;;;;;;;;;;;;;;;;5021417;28;19924;-75
2023/08/16 01:43:46;;;;;;;;;;;;;;;;;;5023203;28;19925;-75
2023/08/16 01:46:32;;;;;;;;;;;;;;;;;;5015404;28;19914;-75
2023/08/16 01:49:19;;;;;;;;;;;;;;;;;;5026157;28;19931;-76
2023/08/16 01:52:05;;;;;;;;;;;;;;;;;;5007833;28;19921;-76
2023/08/16 01:54:52;;;;;;;;;;;;;;;;;;5017715;28;19927;-75
2023/08/16 01:57:38;;;;;;;;;;;;;;;;;;5006206;28;19914;-75
2023/08/16 02:00:25;;;;;;;;;;;;;;;;;;5021699;28;19944;-75
2023/08/16 02:03:11;;;;;;;;;;;;;;;;;;5012976;28;19928;-75
2023/08/16 02:05:58;;;;;;;;;;;;;;;;;;5005001;28;19913;-75
2023/08/16 02:08:44;;;;;;;;;;;;;;;;;;5021869;28;19918;-75
2023/08/16 02:11:31;;;;;;;;;;;;;;;;;;5007702;28;19917;-76
2023/08/16 02:14:17;;;;;;;;;;;;;;;;;;5021810;28;19936;-75
2023/08/16 02:17:03;;;;;;;;;;;;;;;;;;5008495;28;19924;-76
2023/08/16 02:19:50;;;;;;;;;;;;;;;;;;5020097;28;19945;-75
2023/08/16 02:22:36;;;;;;;;;;;;;;;;;;5019872;28;19917;-77
2023/08/16 02:25:23;;;;;;;;;;;;;;;;;;5014848;28;19928;-75
2023/08/16 02:28:09;;;;;;;;;;;;;;;;;;5022159;28;19913;-75
2023/08/16 02:30:56;;;;;;;;;;;;;;;;;;5027120;28;19913;-75
2023/08/16 02:33:42;;;;;;;;;;;;;;;;;;5025461;28;19933;-76
2023/08/16 02:36:29;;;;;;;;;;;;;;;;;;5025034;28;20000;-75
2023/08/16 02:39:17;;;;;;;;;;;;;;;;;;5027199;28;19926;-76
2023/08/16 02:42:03;;;;;;;;;;;;;;;;;;5022435;28;19913;-76
2023/08/16 02:44:50;;;;;;;;;;;;;;;;;;5026076;28;19921;-76
2023/08/16 02:47:36;;;;;;;;;;;;;;;;;;5018861;28;19935;-75
2023/08/16 02:50:23;;;;;;;;;;;;;;;;;;5023577;28;19924;-74
2023/08/16 02:53:09;;;;;;;;;;;;;;;;;;5021059;28;19927;-74
2023/08/16 02:55:56;;;;;;;;;;;;;;;;;;5026608;28;20369;-74
2023/08/16 02:58:42;;;;;;;;;;;;;;;;;;5014491;28;20278;-74
2023/08/16 03:01:29;;;;;;;;;;;;;;;;;;5022893;28;20277;-74
2023/08/16 03:04:15;;;;;;;;;;;;;;;;;;5017632;28;19992;-74
2023/08/16 03:07:02;;;;;;;;;;;;;;;;;;5021019;28;19917;-74
2023/08/16 03:09:48;;;;;;;;;;;;;;;;;;5025757;28;20003;-75
2023/08/16 03:12:35;;;;;;;;;;;;;;;;;;5020137;28;19917;-76
2023/08/16 03:15:21;;;;;;;;;;;;;;;;;;5024753;28;19955;-75
2023/08/16 03:18:07;;;;;;;;;;;;;;;;;;5025511;28;20011;-75
2023/08/16 03:20:54;;;;;;;;;;;;;;;;;;5010045;28;19922;-75
2023/08/16 03:23:40;;;;;;;;;;;;;;;;;;5021432;28;19921;-75
2023/08/16 03:26:27;;;;;;;;;;;;;;;;;;5024158;28;19955;-76
2023/08/16 03:29:13;;;;;;;;;;;;;;;;;;5023254;28;19941;-76
2023/08/16 03:32:00;;;;;;;;;;;;;;;;;;5013416;28;19921;-77
2023/08/16 03:34:46;;;;;;;;;;;;;;;;;;5014715;28;19929;-76
2023/08/16 03:37:33;;;;;;;;;;;;;;;;;;5025148;28;20331;-76
2023/08/16 03:40:19;;;;;;;;;;;;;;;;;;5024483;28;19920;-76
2023/08/16 03:43:06;;;;;;;;;;;;;;;;;;5023184;28;19948;-75
2023/08/16 03:45:52;;;;;;;;;;;;;;;;;;5024268;28;19917;-76
2023/08/16 03:48:39;;;;;;;;;;;;;;;;;;5018281;28;19930;-76
2023/08/16 03:51:25;;;;;;;;;;;;;;;;;;5024018;28;20297;-76
2023/08/16 03:54:12;;;;;;;;;;;;;;;;;;5023447;28;19929;-75
2023/08/16 03:56:58;;;;;;;;;;;;;;;;;;5014623;28;20274;-75
2023/08/16 03:59:45;;;;;;;;;;;;;;;;;;5020511;28;19937;-75
2023/08/16 04:02:31;;;;;;;;;;;;;;;;;;5023471;28;20411;-76
2023/08/16 04:05:18;;;;;;;;;;;;;;;;;;5015237;28;19926;-75
2023/08/16 04:08:04;;;;;;;;;;;;;;;;;;5021607;28;19917;-77
2023/08/16 04:10:50;;;;;;;;;;;;;;;;;;5020570;28;19936;-76
2023/08/16 04:13:37;;;;;;;;;;;;;;;;;;5021027;28;19932;-76
2023/08/16 04:16:23;;;;;;;;;;;;;;;;;;5023018;28;19917;-76
2023/08/16 04:19:10;;;;;;;;;;;;;;;;;;5010948;28;19932;-76
2023/08/16 04:21:56;;;;;;;;;;;;;;;;;;5024224;28;19943;-76
2023/08/16 04:24:43;;;;;;;;;;;;;;;;;;5021098;28;19921;-76
2023/08/16 04:27:29;;;;;;;;;;;;;;;;;;5006980;28;19924;-77
2023/08/16 04:30:16;;;;;;;;;;;;;;;;;;5019532;28;19925;-77
2023/08/16 04:33:02;;;;;;;;;;;;;;;;;;5032215;28;19921;-76
2023/08/16 04:35:49;;;;;;;;;;;;;;;;;;5021067;28;19924;-76
2023/08/16 04:38:35;;;;;;;;;;;;;;;;;;5018213;28;20024;-76
2023/08/16 04:41:22;;;;;;;;;;;;;;;;;;5017268;28;19944;-76
2023/08/16 04:44:08;;;;;;;;;;;;;;;;;;5006724;28;19932;-75
2023/08/16 04:46:55;;;;;;;;;;;;;;;;;;5018210;28;20266;-76
2023/08/16 04:49:41;;;;;;;;;;;;;;;;;;5020633;28;19925;-74
2023/08/16 04:52:28;;;;;;;;;;;;;;;;;;5018764;28;19921;-75
2023/08/16 04:55:15;;;;;;;;;;;;;;;;;;5022441;28;20421;-75
2023/08/16 04:58:01;;;;;;;;;;;;;;;;;;5019939;28;20020;-75
2023/08/16 05:00:48;;;;;;;;;;;;;;;;;;5016074;28;20371;-75
2023/08/16 05:03:34;;;;;;;;;;;;;;;;;;5017984;28;19921;-75
2023/08/16 05:06:21;;;;;;;;;;;;;;;;;;5025045;28;20054;-75
2023/08/16 05:09:07;;;;;;;;;;;;;;;;;;5012337;28;19917;-76
2023/08/16 05:11:54;;;;;;;;;;;;;;;;;;5015353;28;20411;-75
2023/08/16 05:14:40;;;;;;;;;;;;;;;;;;5022757;28;19933;-76
2023/08/16 05:17:27;;;;;;;;;;;;;;;;;;5018828;28;19917;-76
2023/08/16 05:20:13;;;;;;;;;;;;;;;;;;5032297;28;19917;-75
2023/08/16 05:23:00;;;;;;;;;;;;;;;;;;5031218;28;19925;-76
2023/08/16 05:25:46;;;;;;;;;;;;;;;;;;5008273;28;21356;-76
2023/08/16 05:28:33;;;;;;;;;;;;;;;;;;5020992;28;19917;-76
2023/08/16 05:31:19;;;;;;;;;;;;;;;;;;5031652;28;19921;-76
2023/08/16 05:34:06;;;;;;;;;;;;;;;;;;5031714;28;19943;-76
2023/08/16 05:36:53;;;;;;;;;;;;;;;;;;5031449;28;19921;-77
2023/08/16 05:39:40;;;;;;;;;;;;;;;;;;5030234;28;19921;-76
2023/08/16 05:42:28;;;;;;;;;;;;;;;;;;5034117;28;19925;-77
2023/08/16 05:45:14;;;;;;;;;;;;;;;;;;5032172;28;19925;-78
2023/08/16 05:48:01;;;;;;;;;;;;;;;;;;5023871;28;19929;-77
2023/08/16 05:50:47;;;;;;;;;;;;;;;;;;5015599;28;19967;-75
2023/08/16 05:53:34;;;;;;;;;;;;;;;;;;5021057;28;19929;-75
2023/08/16 05:56:20;;;;;;;;;;;;;;;;;;5007288;28;19928;-76
2023/08/16 05:59:07;;;;;;;;;;;;;;;;;;5019435;28;20386;-73
2023/08/16 06:01:53;;;;;;;;;;;;;;;;;;5012425;28;20285;-74
2023/08/16 06:04:40;;;;;;;;;;;;;;;;;;5002117;28;19925;-74
2023/08/16 06:07:26;;;;;;;;;;;;;;;;;;5017641;28;19931;-75
2023/08/16 06:10:13;;;;;;;;;;;;;;;;;;5014424;28;19928;-74
2023/08/16 06:12:59;;;;;;;;;;;;;;;;;;5019756;28;20389;-75
2023/08/16 06:15:46;;;;;;;;;;;;;;;;;;5005152;28;19925;-75
2023/08/16 06:18:32;;;;;;;;;;;;;;;;;;5026293;28;19928;-76
2023/08/16 06:21:19;;;;;;;;;;;;;;;;;;5021560;28;19917;-75
2023/08/16 06:24:05;;;;;;;;;;;;;;;;;;5021292;28;19925;-75
2023/08/16 06:26:52;;;;;;;;;;;;;;;;;;5018886;28;19932;-76
2023/08/16 06:29:38;;;;;;;;;;;;;;;;;;5015617;28;19917;-74
2023/08/16 06:32:25;;;;;;;;;;;;;;;;;;5020129;28;19921;-79
2023/08/16 06:35:11;;;;;;;;;;;;;;;;;;5008771;28;20398;-78
2023/08/16 06:37:58;;;;;;;;;;;;;;;;;;5018350;28;19928;-76
2023/08/16 06:40:50;;;;;;;;;;;;;;;;;;5014541;28;19931;-78
2023/08/16 06:43:37;;;;;;;;;;;;;;;;;;5013504;28;19933;-78
2023/08/16 06:46:23;;;;;;;;;;;;;;;;;;5018582;28;20319;-77
2023/08/16 06:49:10;;;;;;;;;;;;;;;;;;5018886;28;19925;-77
2023/08/16 06:51:56;;;;;;;;;;;;;;;;;;5004809;28;19921;-77
2023/08/16 06:54:43;;;;;;;;;;;;;;;;;;5017021;28;19935;-77
2023/08/16 06:57:29;;;;;;;;;;;;;;;;;;5012663;28;20580;-78
2023/08/16 07:00:17;;;;;;;;;;;;;;;;;;5012734;28;20632;-77
2023/08/16 07:03:03;;;;;;;;;;;;;;;;;;5016435;28;19931;-77
2023/08/16 07:05:50;;;;;;;;;;;;;;;;;;5002283;28;19932;-78
2023/08/16 07:08:37;;;;;;;;;;;;;;;;;;5005645;28;19948;-78
2023/08/16 07:11:24;;;;;;;;;;;;;;;;;;5021716;28;19928;-78
2023/08/16 07:14:11;;;;;;;;;;;;;;;;;;5022114;28;19936;-77
2023/08/16 07:16:57;;;;;;;;;;;;;;;;;;5017813;28;20361;-78
2023/08/16 07:19:48;;;;;;;;;;;;;;;;;;5017456;28;19922;-76
2023/08/16 07:22:37;;;;;;;;;;;;;;;;;;5019936;28;19921;-77
2023/08/16 07:25:23;;;;;;;;;;;;;;;;;;5019403;28;19921;-77
2023/08/16 07:28:10;;;;;;;;;;;;;;;;;;5022655;28;19928;-76
2023/08/16 07:30:56;;;;;;;;;;;;;;;;;;5020747;28;19921;-76
2023/08/16 07:33:43;;;;;;;;;;;;;;;;;;5006147;28;19928;-76
2023/08/16 07:36:29;;;;;;;;;;;;;;;;;;5021369;28;19968;-77
2023/08/16 07:39:16;;;;;;;;;;;;;;;;;;5020188;28;19921;-76
2023/08/16 07:42:02;;;;;;;;;;;;;;;;;;5020425;28;20387;-77
2023/08/16 07:44:49;;;;;;;;;;;;;;;;;;5017191;28;19987;-76
2023/08/16 07:47:35;;;;;;;;;;;;;;;;;;5022713;28;19951;-77
2023/08/16 07:50:22;;;;;;;;;;;;;;;;;;5015256;28;20114;-76
2023/08/16 07:53:08;;;;;;;;;;;;;;;;;;5019172;28;19925;-76
2023/08/16 07:55:55;;;;;;;;;;;;;;;;;;5020841;28;19917;-76
2023/08/16 07:58:41;;;;;;;;;;;;;;;;;;5022711;28;20611;-76
2023/08/16 08:01:28;;;;;;;;;;;;;;;;;;5018154;28;19921;-77
2023/08/16 08:04:15;;;;;;;;;;;;;;;;;;5007944;28;20500;-76
2023/08/16 08:07:01;;;;;;;;;;;;;;;;;;5021644;28;19928;-76
2023/08/16 08:09:48;;;;;;;;;;;;;;;;;;5018872;28;19928;-77
2023/08/16 08:12:34;;;;;;;;;;;;;;;;;;5019803;28;20289;-77
2023/08/16 08:15:21;;;;;;;;;;;;;;;;;;5021679;28;20571;-77
2023/08/16 08:18:07;;;;;;;;;;;;;;;;;;5021490;28;20368;-77
2023/08/16 08:20:55;;;;;;;;;;;;;;;;;;5005633;28;19921;-76
2023/08/16 08:23:42;;;;;;;;;;;;;;;;;;5019639;28;20435;-77
2023/08/16 08:26:28;;;;;;;;;;;;;;;;;;5014992;28;19921;-76
2023/08/16 08:29:15;;;;;;;;;;;;;;;;;;5020805;28;19922;-77
2023/08/16 08:32:02;;;;;;;;;;;;;;;;;;5017858;28;19932;-77
2023/08/16 08:34:48;;;;;;;;;;;;;;;;;;5003549;28;19933;-77
2023/08/16 08:37:35;;;;;;;;;;;;;;;;;;5020916;28;19994;-77
2023/08/16 08:40:22;;;;;;;;;;;;;;;;;;5020503;28;19929;-76
2023/08/16 08:43:08;;;;;;;;;;;;;;;;;;5008815;28;20610;-76
2023/08/16 08:45:55;;;;;;;;;;;;;;;;;;5014250;28;19967;-75
2023/08/16 08:48:41;;;;;;;;;;;;;;;;;;5022885;28;19935;-75
2023/08/16 08:51:28;;;;;;;;;;;;;;;;;;5016924;28;19925;-76
2023/08/16 08:54:14;;;;;;;;;;;;;;;;;;5019080;28;19936;-76
2023/08/16 08:57:01;;;;;;;;;;;;;;;;;;5019450;28;19920;-75
2023/08/16 08:59:49;;;;;;;;;;;;;;;;;;5017465;28;19928;-75
2023/08/16 09:02:35;;;;;;;;;;;;;;;;;;5020106;28;20391;-78
2023/08/16 09:05:22;;;;;;;;;;;;;;;;;;5021779;28;19944;-76
2023/08/16 09:08:09;;;;;;;;;;;;;;;;;;5004684;28;19921;-76
2023/08/16 09:10:56;;;;;;;;;;;;;;;;;;5022551;28;19928;-75
2023/08/16 09:13:42;;;;;;;;;;;;;;;;;;5019925;28;19948;-75
2023/08/16 09:16:29;;;;;;;;;;;;;;;;;;5016722;28;19936;-75
2023/08/16 09:19:15;;;;;;;;;;;;;;;;;;5017273;28;19913;-75
2023/08/16 09:22:02;;;;;;;;;;;;;;;;;;5014963;28;20476;-76
2023/08/16 09:24:54;;;;;;;;;;;;;;;;;;5017247;28;20357;-76
2023/08/16 09:27:40;;;;;;;;;;;;;;;;;;5001727;28;20361;-76
2023/08/16 09:30:27;;;;;;;;;;;;;;;;;;5016754;28;19932;-75
2023/08/16 09:33:13;;;;;;;;;;;;;;;;;;5022056;28;19933;-77
2023/08/16 09:36:01;;;;;;;;;;;;;;;;;;5018558;28;19929;-76
2023/08/16 09:38:48;;;;;;;;;;;;;;;;;;5017182;28;20304;-77
2023/08/16 09:41:34;;;;;;;;;;;;;;;;;;5019513;28;19956;-76
2023/08/16 09:44:21;;;;;;;;;;;;;;;;;;5017879;28;20278;-77
2023/08/16 09:47:08;;;;;;;;;;;;;;;;;;5018446;28;20657;-76
2023/08/16 09:49:54;;;;;;;;;;;;;;;;;;5021306;28;19920;-76
2023/08/16 09:52:42;;;;;;;;;;;;;;;;;;5018235;28;20296;-76
2023/08/16 09:55:29;;;;;;;;;;;;;;;;;;5013009;28;20385;-76
2023/08/16 09:58:16;;;;;;;;;;;;;;;;;;5016078;28;20406;-76
2023/08/16 10:01:02;;;;;;;;;;;;;;;;;;5017798;28;19935;-76
2023/08/16 10:03:48;;;;;;;;;;;;;;;;;;5013868;28;20381;-76
2023/08/16 10:06:35;;;;;;;;;;;;;;;;;;5022457;28;19917;-76
2023/08/16 10:09:22;;;;;;;;;;;;;;;;;;5020138;28;19921;-75
2023/08/16 10:12:08;;;;;;;;;;;;;;;;;;5020010;28;19924;-75
2023/08/16 10:14:55;;;;;;;;;;;;;;;;;;5020231;28;19929;-76
2023/08/16 10:17:42;;;;;;;;;;;;;;;;;;5020458;28;20440;-76
2023/08/16 10:20:29;;;;;;;;;;;;;;;;;;5021639;28;19924;-75
2023/08/16 10:23:15;;;;;;;;;;;;;;;;;;5019598;28;20287;-75
2023/08/16 10:26:02;;;;;;;;;;;;;;;;;;5018112;28;19935;-77
2023/08/16 10:28:48;;;;;;;;;;;;;;;;;;5010045;28;19917;-77
2023/08/16 10:31:35;;;;;;;;;;;;;;;;;;5021354;28;19948;-76
2023/08/16 10:34:21;;;;;;;;;;;;;;;;;;5019388;28;19928;-76
2023/08/16 10:37:08;;;;;;;;;;;;;;;;;;5017002;28;19928;-76
2023/08/16 10:39:54;;;;;;;;;;;;;;;;;;5006226;28;19929;-79
2023/08/16 10:42:41;;;;;;;;;;;;;;;;;;5023108;28;19921;-77
2023/08/16 10:45:27;;;;;;;;;;;;;;;;;;5023567;28;20012;-76
2023/08/16 10:48:14;;;;;;;;;;;;;;;;;;5009257;28;19925;-74
2023/08/16 10:51:00;;;;;;;;;;;;;;;;;;5020648;28;19925;-79
2023/08/16 10:53:47;;;;;;;;;;;;;;;;;;5008073;28;19930;-77
2023/08/16 10:56:33;;;;;;;;;;;;;;;;;;5022210;28;20272;-79
2023/08/16 10:59:20;;;;;;;;;;;;;;;;;;5021284;28;19921;-75
2023/08/16 11:02:06;;;;;;;;;;;;;;;;;;5010805;28;20427;-75
2023/08/16 11:04:53;;;;;;;;;;;;;;;;;;5020738;28;19927;-77
2023/08/16 11:07:39;;;;;;;;;;;;;;;;;;5015890;28;19917;-77
2023/08/16 11:10:26;;;;;;;;;;;;;;;;;;4995615;28;20332;-76
2023/08/16 11:13:12;;;;;;;;;;;;;;;;;;5020869;28;19921;-76
2023/08/16 11:15:59;;;;;;;;;;;;;;;;;;5018987;28;19925;-76
2023/08/16 11:18:45;;;;;;;;;;;;;;;;;;5021770;28;19937;-77
2023/08/16 11:21:34;;;;;;;;;;;;;;;;;;5017928;28;19931;-79
2023/08/16 11:24:20;;;;;;;;;;;;;;;;;;5024359;28;20304;-74
2023/08/16 11:27:07;;;;;;;;;;;;;;;;;;5020472;28;19922;-74
2023/08/16 11:29:59;;;;;;;;;;;;;;;;;;5007683;28;20282;-75
2023/08/16 11:32:45;;;;;;;;;;;;;;;;;;5020863;28;19963;-76
2023/08/16 11:35:36;;;;;;;;;;;;;;;;;;5022195;28;19967;-74
2023/08/16 11:38:23;;;;;;;;;;;;;;;;;;5022981;28;19929;-74
2023/08/16 11:41:09;;;;;;;;;;;;;;;;;;5020190;28;19928;-74
2023/08/16 11:43:56;;;;;;;;;;;;;;;;;;5018543;28;19925;-74
2023/08/16 11:46:42;;;;;;;;;;;;;;;;;;5022676;28;19921;-73
2023/08/16 11:49:29;;;;;;;;;;;;;;;;;;5026631;28;20412;-74
2023/08/16 11:52:15;;;;;;;;;;;;;;;;;;5023437;28;19932;-73
2023/08/16 11:55:02;;;;;;;;;;;;;;;;;;5022571;28;20404;-73
2023/08/16 11:57:48;;;;;;;;;;;;;;;;;;5021967;28;19940;-74
2023/08/16 12:00:35;;;;;;;;;;;;;;;;;;5006493;28;19922;-73
2023/08/16 12:03:21;;;;;;;;;;;;;;;;;;5022996;28;20229;-74
2023/08/16 12:06:10;;;;;;;;;;;;;;;;;;5013057;28;19959;-74
2023/08/16 12:08:57;;;;;;;;;;;;;;;;;;5024568;28;19928;-76
2023/08/16 12:11:43;;;;;;;;;;;;;;;;;;5024212;28;19918;-75
2023/08/16 12:14:30;;;;;;;;;;;;;;;;;;5018380;28;19936;-74
2023/08/16 12:17:16;;;;;;;;;;;;;;;;;;5021377;28;20296;-83
2023/08/16 12:20:03;;;;;;;;;;;;;;;;;;5020285;28;19929;-82
2023/08/16 12:22:49;;;;;;;;;;;;;;;;;;5018075;28;19929;-82
2023/08/16 12:25:36;;;;;;;;;;;;;;;;;;5022042;28;19947;-81
2023/08/16 12:28:23;;;;;;;;;;;;;;;;;;5021016;28;19926;-83
2023/08/16 12:31:09;;;;;;;;;;;;;;;;;;5013938;28;19959;-83
2023/08/16 12:33:55;;;;;;;;;;;;;;;;;;5008122;28;19925;-83
2023/08/16 12:36:42;;;;;;;;;;;;;;;;;;5019332;28;19921;-83
2023/08/16 12:39:28;;;;;;;;;;;;;;;;;;5023506;28;19932;-83
2023/08/16 12:42:15;;;;;;;;;;;;;;;;;;5021177;28;19917;-83
2023/08/16 12:45:01;;;;;;;;;;;;;;;;;;5021627;28;20956;-82
2023/08/16 12:47:48;;;;;;;;;;;;;;;;;;5020003;28;19929;-83
2023/08/16 12:50:34;;;;;;;;;;;;;;;;;;5018619;28;20285;-82
2023/08/16 12:53:21;;;;;;;;;;;;;;;;;;5021006;28;19921;-82
2023/08/16 12:56:07;;;;;;;;;;;;;;;;;;5019223;28;19925;-83
2023/08/16 12:58:54;;;;;;;;;;;;;;;;;;5023928;28;19925;-82
2023/08/16 13:01:40;;;;;;;;;;;;;;;;;;5008233;28;19923;-82
2023/08/16 13:04:27;;;;;;;;;;;;;;;;;;5025492;28;19921;-83
2023/08/16 13:07:13;;;;;;;;;;;;;;;;;;5018773;28;20289;-82
2023/08/16 13:10:00;;;;;;;;;;;;;;;;;;5021895;28;19933;-87
2023/08/16 13:12:46;;;;;;;;;;;;;;;;;;5014780;28;19927;-82
2023/08/16 13:15:33;;;;;;;;;;;;;;;;;;5019922;28;19929;-81
2023/08/16 13:18:20;;;;;;;;;;;;;;;;;;5022445;28;19924;-82
2023/08/16 13:21:08;;;;;;;;;;;;;;;;;;5014501;28;20023;-82
2023/08/16 13:23:55;;;;;;;;;;;;;;;;;;5015751;28;19917;-82
2023/08/16 13:26:41;;;;;;;;;;;;;;;;;;5022313;28;20502;-82
2023/08/16 13:29:28;;;;;;;;;;;;;;;;;;5020824;28;19932;-83
2023/08/16 13:32:14;;;;;;;;;;;;;;;;;;5021786;28;19927;-82
2023/08/16 13:35:01;;;;;;;;;;;;;;;;;;5022298;28;19937;-83
2023/08/16 13:37:47;;;;;;;;;;;;;;;;;;5020608;28;20278;-84
2023/08/16 13:40:35;;;;;;;;;;;;;;;;;;5013698;28;20336;-84
2023/08/16 13:43:22;;;;;;;;;;;;;;;;;;5020649;28;19928;-83
2023/08/16 13:46:08;;;;;;;;;;;;;;;;;;5021110;28;19921;-82
2023/08/16 13:48:55;;;;;;;;;;;;;;;;;;5020323;28;19925;-83
2023/08/16 13:51:41;;;;;;;;;;;;;;;;;;5022644;28;19943;-83
2023/08/16 13:54:28;;;;;;;;;;;;;;;;;;5021752;28;19940;-84
2023/08/16 13:57:14;;;;;;;;;;;;;;;;;;5021686;28;20316;-83
2023/08/16 14:00:01;;;;;;;;;;;;;;;;;;5022292;28;19921;-84
2023/08/16 14:02:47;;;;;;;;;;;;;;;;;;5018972;28;19925;-85
2023/08/16 14:05:34;;;;;;;;;;;;;;;;;;5021518;28;19929;-84
2023/08/16 14:08:20;;;;;;;;;;;;;;;;;;5021698;28;19928;-84
2023/08/16 14:11:07;;;;;;;;;;;;;;;;;;5007574;28;19932;-84
2023/08/16 14:13:55;;;;;;;;;;;;;;;;;;5019341;28;19925;-84
2023/08/16 14:16:42;;;;;;;;;;;;;;;;;;5017847;28;19921;-81
2023/08/16 14:19:28;;;;;;;;;;;;;;;;;;5026866;28;19925;-81
2023/08/16 14:22:15;;;;;;;;;;;;;;;;;;5014044;28;19913;-86
2023/08/16 14:25:01;;;;;;;;;;;;;;;;;;5022158;28;19927;-81
2023/08/16 14:27:48;;;;;;;;;;;;;;;;;;5024002;28;19921;-81
2023/08/16 14:30:34;;;;;;;;;;;;;;;;;;5029377;28;19944;-82
2023/08/16 14:33:23;;;;;;;;;;;;;;;;;;5012735;28;19940;-82
2023/08/16 14:36:09;;;;;;;;;;;;;;;;;;5025119;28;19917;-82
2023/08/16 14:38:56;;;;;;;;;;;;;;;;;;5022195;28;19923;-83
2023/08/16 14:41:42;;;;;;;;;;;;;;;;;;5018939;28;20031;-83
2023/08/16 14:44:29;;;;;;;;;;;;;;;;;;5025585;28;19952;-85
2023/08/16 14:47:15;;;;;;;;;;;;;;;;;;5023029;28;19941;-84
2023/08/16 14:50:02;;;;;;;;;;;;;;;;;;5021987;28;19927;-83
2023/08/16 14:52:49;;;;;;;;;;;;;;;;;;5021239;28;19920;-83
2023/08/16 14:55:35;;;;;;;;;;;;;;;;;;5022792;28;19925;-82
2023/08/16 14:58:22;;;;;;;;;;;;;;;;;;5009355;28;20345;-85
2023/08/16 15:01:08;;;;;;;;;;;;;;;;;;5021231;28;19936;-88
2023/08/16 15:03:55;;;;;;;;;;;;;;;;;;5025222;28;19928;-84
2023/08/16 15:06:41;;;;;;;;;;;;;;;;;;5025828;28;19947;-85
2023/08/16 15:09:28;;;;;;;;;;;;;;;;;;5023511;28;19921;-85
2023/08/16 15:12:14;;;;;;;;;;;;;;;;;;5021636;28;19921;-86
2023/08/16 15:15:01;;;;;;;;;;;;;;;;;;5023472;28;19939;-83
2023/08/16 15:17:47;;;;;;;;;;;;;;;;;;5015561;28;19929;-79
2023/08/16 15:20:34;;;;;;;;;;;;;;;;;;5020955;28;19921;-80
2023/08/16 15:23:23;;;;;;;;;;;;;;;;;;5025438;28;19927;-79
2023/08/16 15:26:09;;;;;;;;;;;;;;;;;;5021697;28;19921;-79
2023/08/16 15:28:55;;;;;;;;;;;;;;;;;;5017719;28;19991;-79
2023/08/16 15:31:42;;;;;;;;;;;;;;;;;;5006791;28;19921;-77
2023/08/16 15:34:28;;;;;;;;;;;;;;;;;;5023623;28;19929;-80
2023/08/16 15:37:15;;;;;;;;;;;;;;;;;;5005623;28;19932;-80
2023/08/16 15:40:04;;;;;;;;;;;;;;;;;;5018184;28;20385;-78
2023/08/16 15:42:50;;;;;;;;;;;;;;;;;;5022488;28;21815;-79
2023/08/16 15:45:37;;;;;;;;;;;;;;;;;;5020697;28;19932;-78
2023/08/16 15:48:23;;;;;;;;;;;;;;;;;;5024696;28;19931;-78
2023/08/16 15:51:10;;;;;;;;;;;;;;;;;;5006763;28;19941;-80
2023/08/16 15:53:56;;;;;;;;;;;;;;;;;;5024244;28;19931;-78
2023/08/16 15:56:43;;;;;;;;;;;;;;;;;;5024052;28;19925;-80
2023/08/16 15:59:29;;;;;;;;;;;;;;;;;;5022959;28;19924;-79
2023/08/16 16:02:16;;;;;;;;;;;;;;;;;;5022009;28;19928;-79
2023/08/16 16:05:02;;;;;;;;;;;;;;;;;;5019838;28;20305;-79
2023/08/16 16:07:49;;;;;;;;;;;;;;;;;;5022125;28;19932;-79
2023/08/16 16:10:35;;;;;;;;;;;;;;;;;;5025159;28;20467;-80
2023/08/16 16:13:23;;;;;;;;;;;;;;;;;;5024303;28;19921;-79
2023/08/16 16:16:09;;;;;;;;;;;;;;;;;;5023048;28;20315;-79
2023/08/16 16:18:56;;;;;;;;;;;;;;;;;;5020301;28;20079;-79
2023/08/16 16:21:42;;;;;;;;;;;;;;;;;;5019441;28;19922;-79
2023/08/16 16:24:29;;;;;;;;;;;;;;;;;;5014128;28;19932;-79
2023/08/16 16:27:15;;;;;;;;;;;;;;;;;;5017086;28;19913;-79
2023/08/16 16:30:02;;;;;;;;;;;;;;;;;;5013246;28;19917;-79
2023/08/16 16:32:48;;;;;;;;;;;;;;;;;;5022670;28;19963;-79
2023/08/16 16:35:35;;;;;;;;;;;;;;;;;;5023950;28;19936;-78
2023/08/16 16:38:21;;;;;;;;;;;;;;;;;;5020608;28;19917;-79
2023/08/16 16:41:08;;;;;;;;;;;;;;;;;;5019904;28;19921;-79
2023/08/16 16:43:54;;;;;;;;;;;;;;;;;;5020781;28;19928;-79
2023/08/16 16:46:41;;;;;;;;;;;;;;;;;;5023487;28;19925;-79
2023/08/16 16:49:27;;;;;;;;;;;;;;;;;;5019566;28;19939;-79
2023/08/16 16:52:13;;;;;;;;;;;;;;;;;;5021640;28;19917;-80
2023/08/16 16:55:00;;;;;;;;;;;;;;;;;;5015945;28;20285;-79
2023/08/16 16:57:46;;;;;;;;;;;;;;;;;;5005823;28;19927;-79
2023/08/16 17:00:33;;;;;;;;;;;;;;;;;;5024495;28;20549;-79
2023/08/16 17:03:20;;;;;;;;;;;;;;;;;;5010229;28;19935;-79
2023/08/16 17:06:06;;;;;;;;;;;;;;;;;;5023369;28;19925;-79
2023/08/16 17:08:55;;;;;;;;;;;;;;;;;;5023487;28;19925;-80
2023/08/16 17:11:41;;;;;;;;;;;;;;;;;;5023110;28;20486;-78
2023/08/16 17:14:28;;;;;;;;;;;;;;;;;;5024324;28;19921;-80
2023/08/16 17:17:14;;;;;;;;;;;;;;;;;;5023494;28;19921;-79
2023/08/16 17:20:01;;;;;;;;;;;;;;;;;;5024460;28;20615;-79
2023/08/16 17:22:47;;;;;;;;;;;;;;;;;;5021254;28;19924;-80
2023/08/16 17:25:34;;;;;;;;;;;;;;;;;;5021743;28;19936;-79
2023/08/16 17:28:20;;;;;;;;;;;;;;;;;;5023019;28;19944;-79
2023/08/16 17:31:08;;;;;;;;;;;;;;;;;;5010353;28;19932;-79
2023/08/16 17:33:54;;;;;;;;;;;;;;;;;;5012620;28;19923;-80
2023/08/16 17:36:41;;;;;;;;;;;;;;;;;;5018743;28;19921;-79
2023/08/16 17:39:27;;;;;;;;;;;;;;;;;;5023852;28;19928;-80
2023/08/16 17:42:14;;;;;;;;;;;;;;;;;;5023594;28;19924;-79
2023/08/16 17:45:00;;;;;;;;;;;;;;;;;;5013366;28;20487;-79
2023/08/16 17:47:47;;;;;;;;;;;;;;;;;;5012918;28;19940;-79
2023/08/16 17:50:33;;;;;;;;;;;;;;;;;;5020274;28;19929;-79
2023/08/16 17:53:20;;;;;;;;;;;;;;;;;;5022854;28;19929;-79
2023/08/16 17:56:06;;;;;;;;;;;;;;;;;;5023447;28;20297;-79
2023/08/16 17:58:53;;;;;;;;;;;;;;;;;;5010508;28;19924;-79
2023/08/16 18:01:39;;;;;;;;;;;;;;;;;;5019572;28;20296;-78
2023/08/16 18:04:25;;;;;;;;;;;;;;;;;;5013144;28;19920;-78
2023/08/16 18:07:12;;;;;;;;;;;;;;;;;;5023265;28;20049;-78
2023/08/16 18:09:58;;;;;;;;;;;;;;;;;;5012733;28;19917;-79
2023/08/16 18:12:45;;;;;;;;;;;;;;;;;;5016106;28;19932;-80
2023/08/16 18:15:31;;;;;;;;;;;;;;;;;;5013977;28;19925;-80
2023/08/16 18:18:19;;;;;;;;;;;;;;;;;;5017328;28;20561;-78
2023/08/16 18:21:06;;;;;;;;;;;;;;;;;;5022936;28;19920;-79
2023/08/16 18:23:52;;;;;;;;;;;;;;;;;;5014806;28;19924;-78
2023/08/16 18:26:39;;;;;;;;;;;;;;;;;;5019156;28;19928;-79
2023/08/16 18:29:25;;;;;;;;;;;;;;;;;;5012306;28;19920;-78
2023/08/16 18:32:12;;;;;;;;;;;;;;;;;;5016236;28;20677;-78
2023/08/16 18:34:58;;;;;;;;;;;;;;;;;;5005445;28;20496;-78
2023/08/16 18:37:45;;;;;;;;;;;;;;;;;;5008245;28;19921;-78
2023/08/16 18:40:32;;;;;;;;;;;;;;;;;;5016594;28;19940;-78
2023/08/16 18:43:19;;;;;;;;;;;;;;;;;;5021460;28;19925;-79
2023/08/16 18:46:05;;;;;;;;;;;;;;;;;;5014581;28;20650;-79
2023/08/16 18:48:52;;;;;;;;;;;;;;;;;;5013149;28;19929;-77
2023/08/16 18:51:38;;;;;;;;;;;;;;;;;;5019501;28;19924;-79
2023/08/16 18:54:25;;;;;;;;;;;;;;;;;;5018153;28;19940;-80
2023/08/16 18:57:11;;;;;;;;;;;;;;;;;;5014155;28;19922;-80